Time;durP1;ratioP1;P1;durP2;ratioP2;P2;SDS_P1;SDS_P2;PMS_P1;PMS_P2;Temp;Humidity;BMP_temperature;BMP_pressure;BME280_temperature;BME280_humidity;BME280_pressure;Samples;Min_cycle;Max_cycle;Signal;HPM_P1;HPM_P2
2021/04/23 00:15:17;;;;;;;3.03;1.60;;;;;;;5.22;68.56;100388.12;713998;1202;113914;-73
2021/04/23 00:30:48;;;;;;;2.35;1.43;;;;;;;5.20;67.92;100402.15;713976;1201;115135;-73
2021/04/23 00:46:09;;;;;;;5.18;2.20;;;;;;;5.20;67.32;100416.01;714114;1199;114141;-73
2021/04/23 01:17:10;;;;;;;2.88;1.48;;;;;;;4.49;68.97;100438.56;712231;1202;115338;-74
2021/04/23 01:32:31;;;;;;;3.40;2.27;;;;;;;4.16;71.02;100455.22;712147;1203;114017;-74
2021/04/23 01:47:51;;;;;;;3.60;1.60;;;;;;;3.96;72.43;100464.17;712941;1199;113876;-74
2021/04/23 02:03:13;;;;;;;6.13;1.95;;;;;;;3.88;72.27;100476.73;713972;1199;114833;-74
2021/04/23 02:18:35;;;;;;;9.43;3.35;;;;;;;3.99;73.30;100484.75;713942;1199;114006;-74
2021/04/23 02:34:00;;;;;;;4.43;2.13;;;;;;;4.16;74.35;100489.80;713824;1203;113838;-78
2021/04/23 02:49:20;;;;;;;9.70;2.45;;;;;;;3.83;74.55;100503.78;713930;1199;114781;-78
2021/04/23 03:04:47;;;;;;;6.05;2.40;;;;;;;3.63;75.92;100504.91;713703;1199;114613;-77
2021/04/23 03:20:13;;;;;;;11.70;3.40;;;;;;;3.62;77.53;100497.22;713787;1200;114366;-80
2021/04/23 03:35:35;;;;;;;11.00;4.90;;;;;;;3.72;76.43;100492.33;714102;1203;114038;-81
2021/04/23 03:50:55;;;;;;;10.97;4.67;;;;;;;3.80;77.32;100503.97;719311;1199;114025;-79
2021/04/23 04:06:16;;;;;;;7.95;2.90;;;;;;;3.61;76.58;100487.75;714043;1199;114061;-78
2021/04/23 04:21:37;;;;;;;10.05;3.80;;;;;;;3.57;77.55;100499.22;714043;1199;114861;-76
2021/04/23 04:36:57;;;;;;;6.38;3.50;;;;;;;3.60;79.03;100497.30;714039;1203;113949;-77
2021/04/23 04:52:18;;;;;;;13.43;5.63;;;;;;;3.93;79.79;100487.69;713886;1199;113947;-78
2021/04/23 05:07:38;;;;;;;10.40;4.00;;;;;;;4.49;80.42;100495.72;713948;1199;115478;-78
2021/04/23 05:22:59;;;;;;;9.33;4.00;;;;;;;5.19;80.20;100512.31;713770;1202;113628;-79
2021/04/23 05:38:20;;;;;;;6.55;3.63;;;;;;;5.75;78.48;100533.94;713942;1199;114736;-79
2021/04/23 05:53:41;;;;;;;6.63;3.37;;;;;;;5.97;76.80;100524.77;714272;1199;113699;-78
2021/04/23 06:09:02;;;;;;;7.40;4.30;;;;;;;5.89;76.72;100547.87;714883;1202;114072;-76
2021/04/23 06:24:22;;;;;;;10.70;5.28;;;;;;;6.21;77.56;100535.37;714163;1203;114489;-77
2021/04/23 06:39:43;;;;;;;8.55;3.68;;;;;;;7.10;74.16;100545.94;714594;1187;113910;-77
2021/04/23 06:55:05;;;;;;;6.13;4.15;;;;;;;6.98;73.79;100589.36;715365;1199;115137;-78
2021/04/23 07:10:28;;;;;;;8.95;4.35;;;;;;;6.52;74.91;100582.02;717788;1203;114416;-78
2021/04/23 07:25:49;;;;;;;8.87;5.10;;;;;;;6.59;75.83;100591.13;714377;1178;113748;-77
2021/04/23 07:41:10;;;;;;;45.95;15.35;;;;;;;7.11;75.69;100584.99;714561;1199;114709;-76
2021/04/23 07:56:31;;;;;;;28.30;14.70;;;;;;;8.14;73.84;100599.53;714474;1200;115323;-76
2021/04/23 08:11:52;;;;;;;26.77;12.03;;;;;;;7.70;72.42;100622.68;714466;1199;114115;-78
2021/04/23 08:27:12;;;;;;;12.83;5.33;;;;;;;8.55;70.34;100618.38;714660;1177;113827;-77
2021/04/23 08:42:33;;;;;;;16.03;5.83;;;;;;;9.53;67.83;100609.22;714622;1199;113631;-78
2021/04/23 08:57:54;;;;;;;7.63;4.03;;;;;;;9.98;66.72;100627.50;714466;1199;113555;-80
2021/04/23 09:13:16;;;;;;;14.83;7.23;;;;;;;10.96;60.86;100609.91;714367;1200;114544;-79
2021/04/23 09:28:40;;;;;;;7.43;2.40;;;;;;;10.81;51.40;100601.55;714484;1199;115421;-79
2021/04/23 09:44:01;;;;;;;2.23;1.60;;;;;;;11.70;47.05;100585.16;714568;1194;114479;-80
2021/04/23 09:59:26;;;;;;;5.55;1.80;;;;;;;12.37;45.37;100595.09;714446;1191;115026;-78
2021/04/23 10:15:16;;;;;;;24.23;7.15;;;;;;;11.45;46.69;100647.72;717074;1199;114463;-79
2021/04/23 10:30:41;;;;;;;24.98;9.43;;;;;;;9.00;54.83;100717.95;716013;1199;115412;-79
2021/04/23 10:46:12;;;;;;;22.75;9.80;;;;;;;11.38;57.22;100651.85;714107;1203;114472;-79
2021/04/23 11:01:39;;;;;;;19.83;8.23;;;;;;;11.86;50.07;100628.50;714060;1193;114042;-80
2021/04/23 11:17:18;;;;;;;20.27;7.37;;;;;;;11.73;46.58;100652.39;714960;1199;114397;-78
2021/04/23 11:32:52;;;;;;;9.55;2.88;;;;;;;10.65;48.60;100702.52;714482;1200;114372;-78
2021/04/23 11:48:13;;;;;;;12.33;4.98;;;;;;;11.24;49.77;100670.58;723115;1200;113825;-78
2021/04/23 12:03:46;;;;;;;4.68;3.18;;;;;;;11.36;48.59;100700.23;714664;1199;114614;-75
2021/04/23 12:19:08;;;;;;;32.90;14.55;;;;;;;13.82;50.00;100673.85;714468;1178;113830;-75
2021/04/23 12:34:28;;;;;;;7.85;3.70;;;;;;;14.43;42.96;100661.77;714899;1199;114750;-75
2021/04/23 12:49:49;;;;;;;11.13;4.63;;;;;;;14.46;42.29;100653.57;715798;1199;114348;-76
2021/04/23 13:05:20;;;;;;;6.83;3.88;;;;;;;13.94;41.40;100654.20;714479;1199;114716;-73
2021/04/23 13:21:02;;;;;;;11.75;5.13;;;;;;;13.03;41.79;100654.83;718079;1200;114724;-74
2021/04/23 13:36:23;;;;;;;12.08;4.70;;;;;;;12.39;39.60;100657.13;730818;1202;115214;-73
2021/04/23 13:51:45;;;;;;;3.08;1.60;;;;;;;11.52;38.60;100682.20;719053;1203;114325;-74
2021/04/23 14:07:11;;;;;;;7.65;4.15;;;;;;;11.26;40.84;100718.57;725525;1199;114351;-74
2021/04/23 14:22:31;;;;;;;29.88;23.70;;;;;;;11.16;40.58;100702.73;719154;1199;114519;-73
2021/04/23 14:37:51;;;;;;;9.95;6.80;;;;;;;15.55;39.18;100706.19;714019;1199;114570;-74
2021/04/23 14:53:12;;;;;;;7.57;3.40;;;;;;;11.57;37.47;100702.81;714368;1199;114356;-74
2021/04/23 15:08:33;;;;;;;44.15;20.33;;;;;;;12.31;40.01;100720.09;714426;1200;114078;-73
2021/04/23 15:23:53;;;;;;;45.90;19.90;;;;;;;14.17;40.47;100718.91;714639;1200;114016;-74
2021/04/23 15:39:13;;;;;;;93.90;46.67;;;;;;;11.50;43.20;100741.92;714742;1194;114129;-76
2021/04/23 15:54:34;;;;;;;66.18;27.05;;;;;;;10.20;46.24;100769.95;717731;1199;117117;-76
2021/04/23 16:09:54;;;;;;;37.60;18.18;;;;;;;9.95;46.19;100779.73;715508;1200;114897;-77
2021/04/23 16:25:14;;;;;;;28.63;13.07;;;;;;;9.57;46.62;100794.02;714887;1200;113785;-75
2021/04/23 16:40:35;;;;;;;55.38;32.15;;;;;;;9.72;47.16;100802.48;714771;1198;113507;-75
2021/04/23 16:55:56;;;;;;;26.35;13.90;;;;;;;9.46;47.31;100808.75;718922;1203;115104;-75
2021/04/23 17:11:16;;;;;;;242.23;56.25;;;;;;;9.56;47.83;100826.39;717349;1200;114242;-73
2021/04/23 17:26:37;;;;;;;27.73;15.43;;;;;;;9.25;48.26;100842.59;714629;1177;115273;-77
2021/04/23 17:41:58;;;;;;;167.90;65.25;;;;;;;8.79;48.00;100843.33;714452;1177;113846;-75
2021/04/23 17:58:34;;;;;;;98.30;38.63;;;;;;;8.18;49.58;100854.48;714717;1200;114479;-75
2021/04/23 18:14:09;;;;;;;55.98;26.25;;;;;;;7.48;49.78;100866.98;715750;1176;113825;-72
2021/04/23 18:29:30;;;;;;;182.85;63.18;;;;;;;7.04;50.29;100878.52;715577;1176;113577;-73
2021/04/23 18:44:50;;;;;;;58.20;25.95;;;;;;;6.10;52.22;100879.92;717474;1177;114392;-73
2021/04/23 19:00:14;;;;;;;72.43;31.00;;;;;;;5.53;53.58;100882.38;716378;1203;114898;-82
2021/04/23 19:15:35;;;;;;;59.58;23.28;;;;;;;4.80;55.12;100888.99;714832;1200;113670;-80
2021/04/23 19:30:55;;;;;;;58.45;21.65;;;;;;;4.37;56.45;100888.68;715051;1200;114244;-79
2021/04/23 19:46:15;;;;;;;117.03;41.83;;;;;;;4.08;58.54;100915.25;714573;1177;114232;-79
2021/04/23 20:01:36;;;;;;;111.63;42.23;;;;;;;4.18;58.58;100917.38;714982;1200;114660;-80
2021/04/23 20:16:57;;;;;;;133.78;47.30;;;;;;;4.05;57.62;100920.61;715198;1200;113213;-80
2021/04/23 20:32:18;;;;;;;43.48;19.70;;;;;;;3.88;57.12;100895.50;715531;1177;114011;-81
2021/04/23 20:47:38;;;;;;;47.20;19.08;;;;;;;3.75;56.36;100900.45;715736;1200;113886;-74
2021/04/23 21:02:59;;;;;;;19.03;7.68;;;;;;;3.72;56.49;100891.97;715279;1200;114303;-80
2021/04/23 21:18:20;;;;;;;27.87;12.20;;;;;;;3.48;57.21;100906.09;714937;1203;114018;-81
2021/04/23 21:33:41;;;;;;;64.08;23.38;;;;;;;3.32;58.56;100903.37;716043;1199;114694;-80
2021/04/23 21:49:01;;;;;;;69.03;22.93;;;;;;;3.10;58.58;100897.52;715591;1200;114294;-80
2021/04/23 22:04:22;;;;;;;58.13;18.63;;;;;;;2.89;59.11;100894.18;714488;1200;113832;-80
2021/04/23 22:19:43;;;;;;;29.73;10.87;;;;;;;2.95;59.05;100899.09;714229;1199;115199;-81
2021/04/23 22:35:04;;;;;;;21.53;8.38;;;;;;;3.07;59.09;100880.36;714332;1199;115198;-79
2021/04/23 22:50:25;;;;;;;19.00;8.38;;;;;;;2.85;59.56;100869.32;714603;1200;114357;-79
2021/04/23 23:05:46;;;;;;;32.10;12.97;;;;;;;2.53;60.26;100858.69;714719;1198;113465;-79
2021/04/23 23:21:06;;;;;;;32.97;12.07;;;;;;;2.46;61.50;100847.77;714112;1200;115233;-82
2021/04/23 23:36:27;;;;;;;26.57;9.53;;;;;;;2.71;62.02;100857.02;714417;1188;114139;-79
2021/04/23 23:51:47;;;;;;;17.95;8.28;;;;;;;2.75;62.42;100849.02;714008;1199;115521;-79
